createdAt,value
2023-02-01T00:00:58.141Z,4.46
2023-02-01T00:03:28.067Z,4.46
2023-02-01T00:05:58.876Z,4.50
2023-02-01T00:08:25.736Z,4.53
2023-02-01T00:11:03.662Z,4.46
2023-02-01T00:13:32.632Z,4.45
2023-02-01T00:16:07.273Z,4.44
2023-02-01T00:18:35.803Z,4.45
2023-02-01T00:21:02.768Z,4.44
2023-02-01T00:23:29.497Z,4.48
2023-02-01T00:25:56.037Z,4.46
2023-02-01T00:28:22.580Z,4.47
2023-02-01T00:30:57.576Z,4.46
2023-02-01T00:33:24.613Z,4.48
2023-02-01T00:36:00.530Z,4.55
2023-02-01T00:38:28.791Z,4.50
2023-02-01T00:40:59.006Z,4.43
2023-02-01T00:43:30.261Z,4.44
2023-02-01T00:45:56.715Z,4.48
2023-02-01T00:48:23.288Z,4.44
2023-02-01T00:50:49.810Z,4.39
2023-02-01T00:53:16.453Z,4.40
2023-02-01T00:55:46.817Z,4.42
2023-02-01T00:58:13.330Z,4.42
2023-02-01T01:00:40.160Z,4.35
2023-02-01T01:03:20.382Z,4.34
2023-02-01T01:05:57.989Z,4.35
2023-02-01T01:08:27.270Z,4.34
2023-02-01T01:10:54.217Z,4.34
2023-02-01T01:13:20.691Z,4.35
2023-02-01T01:15:47.683Z,4.34
2023-02-01T01:18:16.483Z,4.34
2023-02-01T01:20:43.303Z,4.47
2023-02-01T01:23:09.854Z,4.43
2023-02-01T01:25:40.358Z,4.51
2023-02-01T01:28:11.062Z,4.56
2023-02-01T01:30:41.092Z,4.45
2023-02-01T01:33:07.805Z,4.46
2023-02-01T01:35:34.477Z,4.42
2023-02-01T01:38:03.774Z,4.37
2023-02-01T01:40:31.386Z,4.38
2023-02-01T01:43:00.730Z,4.38
2023-02-01T01:45:38.251Z,4.36
2023-02-01T01:48:28.124Z,4.34
2023-02-01T01:51:00.445Z,4.36
2023-02-01T01:53:46.001Z,4.31
2023-02-01T01:56:17.425Z,4.31
2023-02-01T01:58:44.264Z,4.30
2023-02-01T02:01:11.222Z,4.24
2023-02-01T02:03:43.956Z,4.22
2023-02-01T02:06:18.352Z,4.26
2023-02-01T02:08:44.917Z,4.27
2023-02-01T02:11:16.735Z,4.31
2023-02-01T02:13:46.080Z,4.31
2023-02-01T02:16:30.898Z,4.34
2023-02-01T02:19:24.937Z,4.28
2023-02-01T02:22:34.643Z,4.25
2023-02-01T02:25:22.852Z,4.32
2023-02-01T02:28:21.482Z,4.28
2023-02-01T02:30:57.131Z,4.28
2023-02-01T02:33:41.858Z,4.32
2023-02-01T02:36:39.816Z,4.28
2023-02-01T02:39:09.802Z,4.27
2023-02-01T02:42:28.811Z,4.30
2023-02-01T02:45:28.453Z,4.28
2023-02-01T02:48:09.105Z,4.31
2023-02-01T02:50:58.099Z,4.32
2023-02-01T02:53:53.650Z,4.34
2023-02-01T02:56:41.010Z,4.35
2023-02-01T02:59:28.238Z,4.37
2023-02-01T03:02:14.124Z,4.35
2023-02-01T03:04:41.509Z,4.34
2023-02-01T03:07:35.991Z,4.36
2023-02-01T03:10:11.538Z,4.33
2023-02-01T03:12:58.104Z,4.32
2023-02-01T03:15:38.740Z,4.35
2023-02-01T03:18:13.702Z,4.33
2023-02-01T03:20:44.278Z,4.34
2023-02-01T03:23:14.871Z,4.37
2023-02-01T03:25:42.838Z,4.39
2023-02-01T03:28:11.164Z,4.42
2023-02-01T03:30:43.023Z,4.43
2023-02-01T03:33:21.969Z,4.38
2023-02-01T03:36:10.947Z,4.36
2023-02-01T03:38:45.054Z,4.38
2023-02-01T03:41:29.833Z,4.39
2023-02-01T03:44:07.495Z,4.42
2023-02-01T03:46:42.774Z,4.49
2023-02-01T03:49:14.279Z,4.44
2023-02-01T03:51:41.721Z,4.42
2023-02-01T03:54:13.016Z,4.39
2023-02-01T03:56:45.108Z,4.44
2023-02-01T03:59:12.993Z,4.42
2023-02-01T04:01:39.443Z,4.42
2023-02-01T04:04:06.658Z,4.46
2023-02-01T04:06:33.409Z,4.45
2023-02-01T04:08:59.922Z,4.43
2023-02-01T04:11:28.362Z,4.43
2023-02-01T04:13:54.805Z,4.38
2023-02-01T04:16:21.329Z,4.43
2023-02-01T04:18:47.844Z,4.40
2023-02-01T04:21:14.421Z,4.39
2023-02-01T04:23:40.879Z,4.38
2023-02-01T04:26:07.753Z,4.27
2023-02-01T04:28:34.314Z,4.19
2023-02-01T04:31:00.893Z,4.22
2023-02-01T04:33:30.957Z,4.15
2023-02-01T04:35:57.434Z,4.06
2023-02-01T04:38:23.885Z,4.09
2023-02-01T04:40:51.424Z,4.19
2023-02-01T04:43:19.630Z,4.11
2023-02-01T04:45:50.076Z,4.03
2023-02-01T04:48:18.319Z,4.05
2023-02-01T04:50:49.231Z,4.03
2023-02-01T04:53:16.413Z,4.02
2023-02-01T04:55:43.760Z,4.05
2023-02-01T04:58:11.474Z,4.07
2023-02-01T05:00:38.312Z,4.12
2023-02-01T05:03:04.867Z,4.13
2023-02-01T05:05:31.563Z,4.15
2023-02-01T05:07:58.818Z,4.14
2023-02-01T05:10:25.551Z,4.15
2023-02-01T05:13:10.654Z,4.19
2023-02-01T05:15:37.129Z,4.17
2023-02-01T05:18:03.809Z,4.17
2023-02-01T05:20:30.364Z,4.18
2023-02-01T05:22:57.062Z,4.21
2023-02-01T05:25:23.782Z,4.29
2023-02-01T05:27:50.289Z,4.31
2023-02-01T05:30:17.079Z,4.29
2023-02-01T05:32:43.675Z,4.36
2023-02-01T05:35:10.260Z,4.35
2023-02-01T05:37:36.737Z,4.32
2023-02-01T05:40:03.853Z,4.31
2023-02-01T05:42:30.303Z,4.28
2023-02-01T05:44:56.797Z,4.33
2023-02-01T05:47:23.297Z,4.30
2023-02-01T05:49:49.958Z,4.31
2023-02-01T05:52:20.206Z,4.26
2023-02-01T05:54:50.131Z,4.24
2023-02-01T05:57:17.434Z,4.26
2023-02-01T05:59:45.750Z,4.23
2023-02-01T06:02:13.265Z,4.19
2023-02-01T06:04:40.260Z,4.21
2023-02-01T06:07:08.702Z,4.16
2023-02-01T06:09:35.939Z,4.18
2023-02-01T06:12:03.083Z,4.10
2023-02-01T06:14:29.742Z,4.02
2023-02-01T06:16:56.577Z,3.96
2023-02-01T06:19:23.641Z,3.97
2023-02-01T06:21:50.207Z,3.92
2023-02-01T06:24:16.704Z,3.95
2023-02-01T06:26:43.399Z,4.02
2023-02-01T06:29:13.777Z,4.06
2023-02-01T06:31:40.896Z,4.01
2023-02-01T06:34:07.489Z,3.98
2023-02-01T06:36:33.983Z,4.05
2023-02-01T06:39:00.840Z,4.05
2023-02-01T06:41:29.612Z,4.05
2023-02-01T06:43:56.530Z,4.04
2023-02-01T06:46:23.088Z,4.00
2023-02-01T06:48:51.331Z,4.00
2023-02-01T06:51:23.523Z,3.98
2023-02-01T06:53:50.105Z,3.97
2023-02-01T06:56:16.581Z,3.93
2023-02-01T06:58:43.159Z,3.89
2023-02-01T07:01:10.997Z,3.91
2023-02-01T07:03:38.125Z,3.89
2023-02-01T07:06:05.530Z,3.91
2023-02-01T07:08:34.174Z,3.86
2023-02-01T07:11:05.419Z,3.84
2023-02-01T07:13:32.095Z,3.83
2023-02-01T07:16:00.779Z,3.84
2023-02-01T07:18:29.876Z,3.78
2023-02-01T07:20:57.214Z,3.75
2023-02-01T07:23:24.576Z,3.73
2023-02-01T07:25:55.241Z,3.75
2023-02-01T07:28:22.141Z,3.77
2023-02-01T07:30:51.957Z,3.74
2023-02-01T07:33:26.000Z,3.74
2023-02-01T07:35:54.335Z,3.70
2023-02-01T07:38:22.666Z,3.75
2023-02-01T07:40:49.161Z,3.78
2023-02-01T07:43:15.667Z,3.80
2023-02-01T07:45:44.815Z,3.88
2023-02-01T07:48:11.260Z,3.83
2023-02-01T07:50:37.778Z,3.87
2023-02-01T07:53:04.298Z,3.83
2023-02-01T07:55:30.922Z,3.72
2023-02-01T07:57:59.013Z,3.70
2023-02-01T08:00:44.660Z,3.67
2023-02-01T08:03:11.252Z,3.67
2023-02-01T08:05:37.940Z,3.60
2023-02-01T08:08:04.965Z,3.56
2023-02-01T08:10:31.453Z,3.57
2023-02-01T08:13:02.083Z,3.61
2023-02-01T08:15:30.175Z,3.69
2023-02-01T08:17:56.712Z,3.73
2023-02-01T08:20:24.573Z,3.81
2023-02-01T08:22:54.307Z,3.84
2023-02-01T08:25:21.695Z,3.97
2023-02-01T08:27:48.461Z,3.94
2023-02-01T08:30:15.168Z,3.99
2023-02-01T08:32:41.684Z,4.14
2023-02-01T08:35:09.401Z,4.25
2023-02-01T08:37:39.644Z,4.25
2023-02-01T08:40:10.177Z,4.24
2023-02-01T08:42:51.587Z,4.28
2023-02-01T08:45:20.818Z,4.34
2023-02-01T08:47:48.005Z,4.42
2023-02-01T08:50:15.295Z,4.44
2023-02-01T08:52:41.959Z,4.46
2023-02-01T08:55:09.067Z,4.51
2023-02-01T08:57:35.806Z,4.49
2023-02-01T09:00:04.239Z,4.47
2023-02-01T09:02:30.856Z,4.51
2023-02-01T09:04:57.795Z,4.47
2023-02-01T09:07:25.861Z,4.52
2023-02-01T09:09:52.309Z,4.47
2023-02-01T09:12:18.868Z,4.50
2023-02-01T09:14:45.544Z,4.54
2023-02-01T09:17:14.381Z,4.59
2023-02-01T09:19:42.187Z,4.66
2023-02-01T09:22:09.518Z,4.70
2023-02-01T09:24:35.960Z,4.66
2023-02-01T09:27:02.507Z,4.61
2023-02-01T09:29:29.158Z,4.61
2023-02-01T09:32:03.298Z,4.67
2023-02-01T09:34:30.785Z,4.72
2023-02-01T09:36:57.259Z,4.72
2023-02-01T09:39:23.771Z,4.91
2023-02-01T09:41:53.752Z,4.98
2023-02-01T09:44:43.895Z,5.02
2023-02-01T09:47:20.033Z,5.03
2023-02-01T09:49:53.797Z,5.01
2023-02-01T09:52:29.267Z,4.95
2023-02-01T09:55:04.911Z,4.93
2023-02-01T09:58:03.557Z,4.94
2023-02-01T10:00:35.592Z,4.91
2023-02-01T10:03:02.116Z,4.90
2023-02-01T10:06:07.103Z,4.91
2023-02-01T10:09:11.034Z,5.01
2023-02-01T10:12:16.328Z,5.01
2023-02-01T10:14:55.450Z,5.06
2023-02-01T10:17:24.903Z,5.04
2023-02-01T10:20:24.009Z,5.10
2023-02-01T10:23:27.348Z,5.18
2023-02-01T10:25:57.261Z,5.22
2023-02-01T10:28:26.890Z,5.19
2023-02-01T10:30:59.760Z,5.19
2023-02-01T10:33:45.463Z,5.21
2023-02-01T10:36:31.406Z,5.23
2023-02-01T10:39:04.671Z,5.38
2023-02-01T10:41:34.600Z,5.37
2023-02-01T10:44:04.404Z,5.40
2023-02-01T10:46:32.782Z,5.40
2023-02-01T10:49:03.319Z,5.43
2023-02-01T10:51:40.298Z,5.41
2023-02-01T10:54:21.355Z,5.37
2023-02-01T10:56:49.464Z,5.33
2023-02-01T10:59:26.244Z,5.30
2023-02-01T11:02:01.489Z,5.40
2023-02-01T11:04:32.524Z,5.48
2023-02-01T11:07:25.210Z,5.53
2023-02-01T11:09:56.046Z,5.58
2023-02-01T11:12:33.087Z,5.64
2023-02-01T11:15:22.597Z,5.58
2023-02-01T11:17:52.766Z,5.53
2023-02-01T11:20:25.061Z,5.47
2023-02-01T11:22:57.683Z,5.41
2023-02-01T11:25:25.519Z,5.40
2023-02-01T11:27:55.756Z,5.37
2023-02-01T11:30:35.861Z,5.38
2023-02-01T11:33:06.805Z,5.43
2023-02-01T11:35:35.718Z,5.44
2023-02-01T11:38:12.582Z,5.40
2023-02-01T11:40:39.553Z,5.47
2023-02-01T11:43:23.632Z,5.42
2023-02-01T11:46:01.873Z,5.37
2023-02-01T11:48:31.748Z,5.37
2023-02-01T11:51:06.934Z,5.38
2023-02-01T11:53:48.383Z,5.35
2023-02-01T11:56:26.229Z,5.31
2023-02-01T11:59:09.958Z,5.28
2023-02-01T12:02:07.649Z,5.31
2023-02-01T12:04:49.218Z,5.28
2023-02-01T12:07:20.584Z,5.28
2023-02-01T12:10:05.309Z,5.26
2023-02-01T12:12:43.858Z,5.26
2023-02-01T12:15:40.367Z,5.19
2023-02-01T12:18:28.012Z,5.20
2023-02-01T12:21:16.359Z,5.18
2023-02-01T12:23:54.277Z,5.13
2023-02-01T12:26:58.380Z,5.13
2023-02-01T12:29:59.279Z,5.13
2023-02-01T12:32:28.678Z,5.13
2023-02-01T12:35:13.798Z,5.14
2023-02-01T12:37:58.900Z,5.19
2023-02-01T12:40:36.959Z,5.22
2023-02-01T12:43:22.637Z,5.25
2023-02-01T12:45:59.519Z,5.27
2023-02-01T12:48:35.052Z,5.30
2023-02-01T12:51:08.147Z,5.34
2023-02-01T12:53:54.987Z,5.40
2023-02-01T12:56:33.401Z,5.40
2023-02-01T12:59:05.271Z,5.33
2023-02-01T13:01:40.073Z,5.27
2023-02-01T13:04:21.176Z,5.21
2023-02-01T13:06:58.086Z,5.12
2023-02-01T13:09:31.928Z,5.03
2023-02-01T13:12:13.637Z,5.01
2023-02-01T13:14:47.445Z,4.99
2023-02-01T13:17:26.041Z,5.00
2023-02-01T13:20:30.649Z,5.03
2023-02-01T13:23:15.948Z,4.96
2023-02-01T13:25:54.154Z,4.98
2023-02-01T13:28:48.853Z,5.02
2023-02-01T13:31:27.473Z,4.99
2023-02-01T13:34:17.031Z,4.87
2023-02-01T13:37:08.441Z,4.80
2023-02-01T13:39:41.040Z,4.76
2023-02-01T13:42:30.353Z,4.68
2023-02-01T13:45:05.298Z,4.57
2023-02-01T13:47:54.278Z,4.54
2023-02-01T13:50:29.425Z,4.53
2023-02-01T13:53:12.725Z,4.53
2023-02-01T13:56:07.209Z,4.54
2023-02-01T13:58:38.197Z,4.55
2023-02-01T14:01:31.092Z,4.52
2023-02-01T14:04:02.756Z,4.52
2023-02-01T14:06:29.236Z,4.51
2023-02-01T14:09:14.110Z,4.50
2023-02-01T14:11:47.009Z,4.52
2023-02-01T14:14:16.173Z,4.51
2023-02-01T14:16:54.861Z,4.45
2023-02-01T14:19:22.991Z,4.43
2023-02-01T14:21:59.872Z,4.32
2023-02-01T14:24:35.739Z,4.29
2023-02-01T14:27:15.212Z,4.20
2023-02-01T14:29:51.775Z,4.17
2023-02-01T14:32:21.126Z,4.14
2023-02-01T14:34:47.724Z,4.15
2023-02-01T14:37:25.794Z,4.18
2023-02-01T14:39:57.693Z,3.40
2023-02-01T14:42:33.383Z,2.79
2023-02-01T14:45:19.748Z,2.44
2023-02-01T14:47:55.509Z,2.26
2023-02-01T14:50:28.159Z,2.10
2023-02-01T14:53:08.173Z,2.02
2023-02-01T14:55:34.564Z,1.95
2023-02-01T14:58:05.976Z,1.92
2023-02-01T15:00:34.096Z,1.93
2023-02-01T15:03:34.702Z,1.93
2023-02-01T15:06:06.875Z,1.88
2023-02-01T15:08:37.704Z,1.84
2023-02-01T15:11:10.260Z,1.90
2023-02-01T15:13:36.812Z,1.89
2023-02-01T15:16:10.539Z,1.89
2023-02-01T15:18:37.407Z,1.84
2023-02-01T15:21:27.085Z,1.90
2023-02-01T15:24:12.143Z,2.00
2023-02-01T15:26:38.808Z,2.02
2023-02-01T15:29:05.351Z,2.10
2023-02-01T15:31:39.420Z,2.21
2023-02-01T15:34:06.100Z,2.30
2023-02-01T15:36:33.290Z,2.24
2023-02-01T15:39:21.182Z,2.20
2023-02-01T15:42:16.541Z,2.20
2023-02-01T15:44:49.202Z,2.23
2023-02-01T15:47:25.406Z,2.28
2023-02-01T15:49:55.401Z,2.38
2023-02-01T15:52:26.231Z,2.35
2023-02-01T15:54:56.935Z,2.41
2023-02-01T15:57:36.252Z,2.37
2023-02-01T16:00:08.526Z,2.41
2023-02-01T16:02:44.733Z,2.47
2023-02-01T16:05:33.654Z,2.50
2023-02-01T16:08:17.528Z,2.45
2023-02-01T16:10:46.776Z,2.49
2023-02-01T16:13:15.038Z,2.52
2023-02-01T16:15:41.601Z,2.53
2023-02-01T16:18:09.145Z,2.60
2023-02-01T16:20:40.648Z,2.58
2023-02-01T16:23:08.897Z,2.68
2023-02-01T16:25:36.542Z,2.75
2023-02-01T16:28:06.501Z,2.78
2023-02-01T16:30:33.841Z,2.75
2023-02-01T16:33:06.208Z,2.77
2023-02-01T16:35:38.003Z,2.84
2023-02-01T16:38:13.182Z,2.90
2023-02-01T16:40:44.263Z,2.88
2023-02-01T16:43:28.712Z,2.86
2023-02-01T16:45:59.926Z,2.86
2023-02-01T16:48:32.440Z,2.92
2023-02-01T16:51:02.061Z,3.03
2023-02-01T16:53:34.501Z,3.01
2023-02-01T16:56:20.572Z,2.97
2023-02-01T16:58:47.734Z,3.02
2023-02-01T17:01:17.715Z,3.00
2023-02-01T17:03:46.570Z,3.00
2023-02-01T17:06:16.448Z,3.04
2023-02-01T17:08:46.221Z,3.03
2023-02-01T17:11:16.730Z,3.03
2023-02-01T17:13:45.819Z,3.02
2023-02-01T17:16:18.068Z,2.97
2023-02-01T17:18:47.617Z,2.96
2023-02-01T17:21:14.239Z,2.90
2023-02-01T17:23:41.078Z,2.87
2023-02-01T17:26:11.006Z,2.86
2023-02-01T17:28:37.489Z,2.85
2023-02-01T17:31:04.799Z,2.85
2023-02-01T17:33:36.636Z,2.87
2023-02-01T17:36:05.986Z,2.85
2023-02-01T17:38:35.214Z,2.85
2023-02-01T17:41:01.754Z,2.90
2023-02-01T17:43:28.427Z,2.97
2023-02-01T17:46:02.782Z,3.00
2023-02-01T17:48:29.474Z,2.94
2023-02-01T17:50:58.846Z,3.02
2023-02-01T17:53:26.844Z,2.97
2023-02-01T17:55:54.020Z,2.92
2023-02-01T17:58:21.695Z,2.94
2023-02-01T18:00:49.399Z,2.86
2023-02-01T18:03:27.985Z,2.88
2023-02-01T18:05:56.852Z,3.07
2023-02-01T18:08:30.269Z,3.07
2023-02-01T18:11:01.667Z,3.08
2023-02-01T18:13:29.772Z,3.10
2023-02-01T18:15:56.341Z,3.11
2023-02-01T18:18:22.884Z,3.11
2023-02-01T18:20:50.001Z,3.14
2023-02-01T18:23:23.259Z,3.28
2023-02-01T18:25:52.367Z,3.26
2023-02-01T18:28:22.699Z,3.22
2023-02-01T18:30:51.523Z,3.20
2023-02-01T18:33:20.766Z,3.34
2023-02-01T18:35:50.337Z,3.38
2023-02-01T18:38:16.943Z,3.40
2023-02-01T18:40:51.203Z,3.44
2023-02-01T18:43:18.044Z,3.38
2023-02-01T18:45:45.576Z,3.40
2023-02-01T18:48:14.300Z,3.51
2023-02-01T18:50:43.476Z,3.52
2023-02-01T18:53:15.955Z,3.57
2023-02-01T18:55:42.508Z,3.55
2023-02-01T18:58:13.478Z,3.65
2023-02-01T19:00:39.981Z,3.71
2023-02-01T19:03:06.489Z,3.65
2023-02-01T19:05:33.119Z,3.69
2023-02-01T19:08:03.226Z,3.79
2023-02-01T19:10:29.999Z,3.75
2023-02-01T19:12:57.500Z,3.68
2023-02-01T19:15:25.683Z,3.69
2023-02-01T19:17:57.105Z,3.65
2023-02-01T19:20:26.022Z,3.72
2023-02-01T19:22:54.227Z,3.82
2023-02-01T19:25:24.504Z,3.81
2023-02-01T19:27:52.051Z,3.88
2023-02-01T19:30:20.042Z,3.92
2023-02-01T19:32:46.703Z,3.89
2023-02-01T19:35:19.252Z,3.89
2023-02-01T19:37:47.304Z,3.87
2023-02-01T19:40:16.852Z,3.92
2023-02-01T19:42:43.528Z,4.02
2023-02-01T19:45:10.533Z,4.01
2023-02-01T19:47:37.703Z,3.96
2023-02-01T19:50:07.040Z,3.93
2023-02-01T19:52:34.891Z,4.01
2023-02-01T19:55:01.654Z,4.03
2023-02-01T19:57:30.874Z,3.99
2023-02-01T19:59:57.535Z,4.16
2023-02-01T20:02:24.709Z,4.17
2023-02-01T20:04:51.178Z,4.11
2023-02-01T20:07:17.733Z,4.01
2023-02-01T20:09:44.174Z,4.04
2023-02-01T20:12:11.522Z,4.05
2023-02-01T20:14:39.045Z,4.01
2023-02-01T20:17:06.669Z,4.00
2023-02-01T20:19:33.943Z,4.06
2023-02-01T20:22:00.968Z,4.04
2023-02-01T20:24:27.492Z,4.04
2023-02-01T20:26:54.818Z,4.15
2023-02-01T20:29:22.906Z,4.04
2023-02-01T20:31:49.576Z,3.99
2023-02-01T20:34:16.134Z,3.91
2023-02-01T20:36:42.689Z,3.90
2023-02-01T20:39:10.809Z,3.98
2023-02-01T20:41:37.923Z,4.06
2023-02-01T20:44:04.572Z,4.14
2023-02-01T20:46:31.040Z,4.11
2023-02-01T20:48:57.628Z,4.11
2023-02-01T20:51:24.114Z,3.98
2023-02-01T20:53:56.224Z,3.90
2023-02-01T20:56:22.809Z,3.98
2023-02-01T20:58:49.422Z,4.13
2023-02-01T21:01:16.253Z,4.21
2023-02-01T21:03:43.190Z,4.10
2023-02-01T21:06:12.112Z,4.05
2023-02-01T21:08:39.025Z,3.99
2023-02-01T21:11:08.314Z,4.01
2023-02-01T21:13:38.256Z,3.94
2023-02-01T21:16:08.628Z,3.95
2023-02-01T21:18:35.460Z,4.01
2023-02-01T21:21:07.033Z,3.98
2023-02-01T21:23:33.659Z,3.95
2023-02-01T21:26:03.207Z,4.03
2023-02-01T21:28:29.707Z,4.07
2023-02-01T21:30:56.280Z,4.10
2023-02-01T21:33:22.762Z,4.01
2023-02-01T21:35:54.956Z,4.01
2023-02-01T21:38:25.060Z,4.04
2023-02-01T21:41:14.378Z,4.00
2023-02-01T21:43:40.821Z,4.01
2023-02-01T21:46:08.409Z,4.00
2023-02-01T21:49:03.810Z,4.04
2023-02-01T21:51:24.840Z,4.00
2023-02-01T21:53:51.372Z,4.06
2023-02-01T21:56:18.082Z,4.09
2023-02-01T21:58:44.669Z,4.05
2023-02-01T22:01:11.235Z,4.17
2023-02-01T22:03:40.529Z,4.15
2023-02-01T22:06:09.334Z,4.27
2023-02-01T22:08:41.368Z,4.22
2023-02-01T22:11:07.881Z,4.18
2023-02-01T22:13:34.379Z,4.22
2023-02-01T22:16:01.017Z,4.16
2023-02-01T22:18:28.051Z,4.13
2023-02-01T22:21:06.399Z,4.20
2023-02-01T22:23:32.872Z,4.35
2023-02-01T22:26:04.750Z,4.30
2023-02-01T22:28:33.746Z,4.31
2023-02-01T22:31:02.409Z,4.21
2023-02-01T22:33:29.216Z,4.19
2023-02-01T22:35:56.027Z,4.21
2023-02-01T22:38:23.235Z,4.26
2023-02-01T22:41:02.027Z,4.27
2023-02-01T22:43:31.954Z,4.31
2023-02-01T22:46:02.893Z,4.28
2023-02-01T22:48:30.738Z,4.28
2023-02-01T22:51:01.331Z,4.26
2023-02-01T22:53:29.546Z,4.29
2023-02-01T22:56:03.817Z,4.23
2023-02-01T22:58:30.725Z,4.22
2023-02-01T23:01:07.783Z,4.18
2023-02-01T23:03:35.972Z,4.15
2023-02-01T23:06:09.975Z,4.22
2023-02-01T23:08:39.341Z,4.34
2023-02-01T23:11:11.053Z,4.31
2023-02-01T23:13:39.239Z,4.28
2023-02-01T23:16:12.737Z,4.22
2023-02-01T23:18:40.445Z,4.22
2023-02-01T23:21:15.916Z,4.27
2023-02-01T23:23:47.475Z,4.18
2023-02-01T23:26:18.193Z,4.26
2023-02-01T23:28:44.815Z,4.32
2023-02-01T23:31:13.991Z,4.25
2023-02-01T23:33:42.015Z,4.21
2023-02-01T23:36:12.325Z,4.25
2023-02-01T23:38:38.796Z,4.23
2023-02-01T23:41:07.780Z,4.24
2023-02-01T23:43:53.020Z,4.27
2023-02-01T23:46:19.786Z,4.21
2023-02-01T23:48:47.960Z,4.12
2023-02-01T23:51:15.597Z,4.07
2023-02-01T23:53:43.871Z,4.08
2023-02-01T23:56:20.701Z,4.14
2023-02-01T23:58:51.930Z,4.11
